Hudson Oaks, Texas
Current Conditions -  °F | °C
As of 4:35 PM on Monday 24 Nov 2014 (Local Time) from KGDJ Reporting Station
Clear Clear  
Wind Chill: 60°   Ceiling: Unl
Heat Index: 60°   Visibility: 10mi
Dew Point: 25°   Wind: 0mph
Humidity: 26%   Direction: NA
Pressure: 30.07"   Gusts: NA
Location:  32.6854°N, 97.7998°W
Report Text: KGDJ 242235Z AUTO 00000KT 10SM CLR 16/M04 A3007 RMK AO2 T01551041
Loading
Personal Weather Stations






























Interactive Weather Map New forecast layout! Learn more

10-Day Weather Forecast

Advertisements
Track Severe Weather on mobile